sensor_id;sensor_type;location;lat;lon;timestamp;pressure;altitude;pressure_sealevel;temperature;humidity
73267;BME280;61495;53.400;7.608;2022-12-18T00:00:43;102847.75;;;-2.25;87.58
73267;BME280;61495;53.400;7.608;2022-12-18T00:03:09;102856.50;;;-2.25;87.69
73267;BME280;61495;53.400;7.608;2022-12-18T00:05:35;102851.31;;;-2.26;87.71
73267;BME280;61495;53.400;7.608;2022-12-18T00:08:00;102852.25;;;-2.27;87.64
73267;BME280;61495;53.400;7.608;2022-12-18T00:10:27;102848.00;;;-2.30;87.73
73267;BME280;61495;53.400;7.608;2022-12-18T00:12:53;102848.84;;;-2.29;87.61
73267;BME280;61495;53.400;7.608;2022-12-18T00:15:18;102843.66;;;-2.31;87.77
73267;BME280;61495;53.400;7.608;2022-12-18T00:17:44;102838.50;;;-2.32;87.64
73267;BME280;61495;53.400;7.608;2022-12-18T00:20:09;102848.06;;;-2.31;87.52
73267;BME280;61495;53.400;7.608;2022-12-18T00:22:35;102855.16;;;-2.33;87.45
73267;BME280;61495;53.400;7.608;2022-12-18T00:25:00;102861.31;;;-2.34;87.43
73267;BME280;61495;53.400;7.608;2022-12-18T00:27:25;102857.03;;;-2.35;87.53
73267;BME280;61495;53.400;7.608;2022-12-18T00:29:51;102855.31;;;-2.36;87.46
73267;BME280;61495;53.400;7.608;2022-12-18T00:32:16;102852.78;;;-2.38;87.35
73267;BME280;61495;53.400;7.608;2022-12-18T00:34:41;102849.34;;;-2.40;87.33
73267;BME280;61495;53.400;7.608;2022-12-18T00:37:07;102845.06;;;-2.41;87.62
73267;BME280;61495;53.400;7.608;2022-12-18T00:39:32;102845.09;;;-2.42;87.53
73267;BME280;61495;53.400;7.608;2022-12-18T00:41:58;102847.81;;;-2.44;87.41
73267;BME280;61495;53.400;7.608;2022-12-18T00:44:42;102856.66;;;-2.46;87.41
73267;BME280;61495;53.400;7.608;2022-12-18T00:47:07;102861.16;;;-2.48;87.42
73267;BME280;61495;53.400;7.608;2022-12-18T00:49:32;102848.94;;;-2.49;87.21
73267;BME280;61495;53.400;7.608;2022-12-18T00:51:58;102854.34;;;-2.52;87.11
73267;BME280;61495;53.400;7.608;2022-12-18T00:54:23;102847.41;;;-2.53;87.43
73267;BME280;61495;53.400;7.608;2022-12-18T00:56:49;102864.97;;;-2.55;87.34
73267;BME280;61495;53.400;7.608;2022-12-18T00:59:15;102866.91;;;-2.59;87.29
73267;BME280;61495;53.400;7.608;2022-12-18T01:01:41;102864.34;;;-2.60;87.32
73267;BME280;61495;53.400;7.608;2022-12-18T01:04:06;102869.69;;;-2.62;87.39
73267;BME280;61495;53.400;7.608;2022-12-18T01:06:32;102881.94;;;-2.62;87.33
73267;BME280;61495;53.400;7.608;2022-12-18T01:08:57;102875.91;;;-2.64;87.27
73267;BME280;61495;53.400;7.608;2022-12-18T01:11:23;102874.22;;;-2.65;87.39
73267;BME280;61495;53.400;7.608;2022-12-18T01:13:49;102878.69;;;-2.67;86.97
73267;BME280;61495;53.400;7.608;2022-12-18T01:16:16;102876.22;;;-2.70;87.09
73267;BME280;61495;53.400;7.608;2022-12-18T01:18:42;102871.88;;;-2.71;87.06
73267;BME280;61495;53.400;7.608;2022-12-18T01:21:09;102881.59;;;-2.73;87.10
73267;BME280;61495;53.400;7.608;2022-12-18T01:23:34;102880.78;;;-2.75;86.96
73267;BME280;61495;53.400;7.608;2022-12-18T01:26:12;102887.13;;;-2.79;87.05
73267;BME280;61495;53.400;7.608;2022-12-18T01:28:38;102887.13;;;-2.79;87.13
73267;BME280;61495;53.400;7.608;2022-12-18T01:31:11;102903.69;;;-2.79;87.17
73267;BME280;61495;53.400;7.608;2022-12-18T01:33:37;102895.94;;;-2.82;86.99
73267;BME280;61495;53.400;7.608;2022-12-18T01:36:02;102893.41;;;-2.84;86.91
73267;BME280;61495;53.400;7.608;2022-12-18T01:38:28;102885.97;;;-2.93;86.88
73267;BME280;61495;53.400;7.608;2022-12-18T01:41:00;102911.00;;;-2.86;87.02
73267;BME280;61495;53.400;7.608;2022-12-18T01:43:42;102913.69;;;-2.87;87.08
73267;BME280;61495;53.400;7.608;2022-12-18T01:46:08;102917.28;;;-2.90;87.04
73267;BME280;61495;53.400;7.608;2022-12-18T01:48:34;102911.19;;;-2.90;86.94
73267;BME280;61495;53.400;7.608;2022-12-18T01:50:59;102913.09;;;-2.94;86.83
73267;BME280;61495;53.400;7.608;2022-12-18T01:53:25;102918.41;;;-2.95;86.65
73267;BME280;61495;53.400;7.608;2022-12-18T01:55:56;102920.94;;;-2.94;86.71
73267;BME280;61495;53.400;7.608;2022-12-18T02:01:12;102921.22;;;-3.00;86.40
73267;BME280;61495;53.400;7.608;2022-12-18T02:03:41;102917.84;;;-3.02;86.74
73267;BME280;61495;53.400;7.608;2022-12-18T02:06:21;102923.06;;;-3.02;86.50
73267;BME280;61495;53.400;7.608;2022-12-18T02:09:24;102927.59;;;-3.05;86.69
73267;BME280;61495;53.400;7.608;2022-12-18T02:12:16;102924.94;;;-3.04;86.64
73267;BME280;61495;53.400;7.608;2022-12-18T02:14:58;102921.63;;;-3.09;86.41
73267;BME280;61495;53.400;7.608;2022-12-18T02:17:35;102921.63;;;-3.09;86.41
73267;BME280;61495;53.400;7.608;2022-12-18T02:20:13;102927.03;;;-3.12;86.40
73267;BME280;61495;53.400;7.608;2022-12-18T02:27:51;102934.38;;;-3.20;86.73
73267;BME280;61495;53.400;7.608;2022-12-18T02:30:18;102928.34;;;-3.22;86.33
73267;BME280;61495;53.400;7.608;2022-12-18T02:32:46;102924.03;;;-3.23;86.34
73267;BME280;61495;53.400;7.608;2022-12-18T02:35:16;102910.13;;;-3.25;86.20
73267;BME280;61495;53.400;7.608;2022-12-18T02:37:45;102906.75;;;-3.27;86.51
73267;BME280;61495;53.400;7.608;2022-12-18T02:40:13;102899.72;;;-3.26;86.38
73267;BME280;61495;53.400;7.608;2022-12-18T02:42:40;102887.72;;;-3.32;86.20
73267;BME280;61495;53.400;7.608;2022-12-18T02:45:06;102878.06;;;-3.30;86.37
73267;BME280;61495;53.400;7.608;2022-12-18T02:47:35;102880.69;;;-3.30;86.32
73267;BME280;61495;53.400;7.608;2022-12-18T02:52:42;102896.72;;;-3.38;86.05
73267;BME280;61495;53.400;7.608;2022-12-18T03:05:38;102919.69;;;-3.44;86.04
73267;BME280;61495;53.400;7.608;2022-12-18T03:08:10;102912.78;;;-3.45;86.20
73267;BME280;61495;53.400;7.608;2022-12-18T03:10:42;102910.16;;;-3.45;86.22
73267;BME280;61495;53.400;7.608;2022-12-18T03:13:15;102917.22;;;-3.47;85.98
73267;BME280;61495;53.400;7.608;2022-12-18T03:15:48;102918.16;;;-3.48;86.28
73267;BME280;61495;53.400;7.608;2022-12-18T03:18:24;102906.22;;;-3.55;86.18
73267;BME280;61495;53.400;7.608;2022-12-18T03:20:52;102902.81;;;-3.57;86.33
73267;BME280;61495;53.400;7.608;2022-12-18T03:23:24;102909.75;;;-3.56;86.17
73267;BME280;61495;53.400;7.608;2022-12-18T03:25:55;102912.50;;;-3.59;86.05
73267;BME280;61495;53.400;7.608;2022-12-18T03:28:23;102918.66;;;-3.60;85.97
73267;BME280;61495;53.400;7.608;2022-12-18T03:30:56;102912.69;;;-3.64;86.13
73267;BME280;61495;53.400;7.608;2022-12-18T03:33:28;102910.16;;;-3.65;86.02
73267;BME280;61495;53.400;7.608;2022-12-18T03:35:56;102907.59;;;-3.67;86.13
73267;BME280;61495;53.400;7.608;2022-12-18T03:38:22;102904.06;;;-3.66;86.05
73267;BME280;61495;53.400;7.608;2022-12-18T03:43:25;102891.16;;;-3.70;85.93
73267;BME280;61495;53.400;7.608;2022-12-18T03:46:04;102882.44;;;-3.71;85.89
73267;BME280;61495;53.400;7.608;2022-12-18T03:48:55;102883.44;;;-3.73;86.05
73267;BME280;61495;53.400;7.608;2022-12-18T03:51:32;102873.88;;;-3.74;86.02
73267;BME280;61495;53.400;7.608;2022-12-18T03:54:02;102870.34;;;-3.73;85.90
73267;BME280;61495;53.400;7.608;2022-12-18T03:56:32;102867.94;;;-3.78;85.77
73267;BME280;61495;53.400;7.608;2022-12-18T03:59:00;102872.31;;;-3.78;85.83
73267;BME280;61495;53.400;7.608;2022-12-18T04:01:37;102871.53;;;-3.80;85.87
73267;BME280;61495;53.400;7.608;2022-12-18T04:04:05;102884.75;;;-3.83;85.79
73267;BME280;61495;53.400;7.608;2022-12-18T04:06:33;102877.03;;;-3.86;85.86
73267;BME280;61495;53.400;7.608;2022-12-18T04:08:59;102881.31;;;-3.85;85.74
73267;BME280;61495;53.400;7.608;2022-12-18T04:11:25;102879.81;;;-3.91;85.70
73267;BME280;61495;53.400;7.608;2022-12-18T04:13:56;102888.66;;;-3.94;85.66
73267;BME280;61495;53.400;7.608;2022-12-18T04:16:25;102895.59;;;-3.92;85.70
73267;BME280;61495;53.400;7.608;2022-12-18T04:18:51;102874.66;;;-3.92;85.84
73267;BME280;61495;53.400;7.608;2022-12-18T04:21:17;102876.34;;;-3.92;85.83
73267;BME280;61495;53.400;7.608;2022-12-18T04:23:42;102879.16;;;-3.96;85.69
73267;BME280;61495;53.400;7.608;2022-12-18T04:26:07;102889.69;;;-3.98;85.59
73267;BME280;61495;53.400;7.608;2022-12-18T04:28:33;102888.03;;;-4.00;85.74
73267;BME280;61495;53.400;7.608;2022-12-18T04:30:58;102898.50;;;-4.00;85.73
73267;BME280;61495;53.400;7.608;2022-12-18T04:33:23;102890.88;;;-4.05;85.83
73267;BME280;61495;53.400;7.608;2022-12-18T04:35:49;102902.19;;;-4.04;85.65
73267;BME280;61495;53.400;7.608;2022-12-18T04:38:14;102906.56;;;-4.05;85.93
73267;BME280;61495;53.400;7.608;2022-12-18T04:40:40;102911.06;;;-4.08;85.72
73267;BME280;61495;53.400;7.608;2022-12-18T04:43:06;102918.00;;;-4.07;85.56
73267;BME280;61495;53.400;7.608;2022-12-18T04:45:31;102924.28;;;-4.11;85.55
73267;BME280;61495;53.400;7.608;2022-12-18T04:47:59;102921.66;;;-4.11;85.61
73267;BME280;61495;53.400;7.608;2022-12-18T04:50:24;102914.66;;;-4.11;85.74
73267;BME280;61495;53.400;7.608;2022-12-18T04:52:50;102914.69;;;-4.12;85.30
73267;BME280;61495;53.400;7.608;2022-12-18T04:55:15;102912.28;;;-4.17;85.50
73267;BME280;61495;53.400;7.608;2022-12-18T04:57:41;102907.06;;;-4.17;85.37
73267;BME280;61495;53.400;7.608;2022-12-18T05:00:07;102901.09;;;-4.20;85.46
73267;BME280;61495;53.400;7.608;2022-12-18T05:02:32;102895.00;;;-4.21;85.30
73267;BME280;61495;53.400;7.608;2022-12-18T05:04:58;102898.53;;;-4.22;85.48
73267;BME280;61495;53.400;7.608;2022-12-18T05:07:23;102898.66;;;-4.25;85.52
73267;BME280;61495;53.400;7.608;2022-12-18T05:09:49;102903.03;;;-4.25;85.52
73267;BME280;61495;53.400;7.608;2022-12-18T05:12:14;102908.19;;;-4.24;85.54
73267;BME280;61495;53.400;7.608;2022-12-18T05:14:39;102900.53;;;-4.28;85.52
73267;BME280;61495;53.400;7.608;2022-12-18T05:17:05;102905.81;;;-4.30;85.74
73267;BME280;61495;53.400;7.608;2022-12-18T05:19:30;102911.19;;;-4.33;85.29
73267;BME280;61495;53.400;7.608;2022-12-18T05:21:56;102906.75;;;-4.31;85.27
73267;BME280;61495;53.400;7.608;2022-12-18T05:24:21;102906.88;;;-4.34;85.49
73267;BME280;61495;53.400;7.608;2022-12-18T05:26:47;102904.25;;;-4.34;85.26
73267;BME280;61495;53.400;7.608;2022-12-18T05:29:12;102911.28;;;-4.36;85.57
73267;BME280;61495;53.400;7.608;2022-12-18T05:31:38;102920.06;;;-4.37;85.20
73267;BME280;61495;53.400;7.608;2022-12-18T05:34:04;102928.81;;;-4.38;85.34
73267;BME280;61495;53.400;7.608;2022-12-18T05:36:30;102916.72;;;-4.40;85.17
73267;BME280;61495;53.400;7.608;2022-12-18T05:38:55;102918.47;;;-4.41;85.13
73267;BME280;61495;53.400;7.608;2022-12-18T05:41:20;102927.22;;;-4.42;84.90
73267;BME280;61495;53.400;7.608;2022-12-18T05:43:46;102928.94;;;-4.41;85.05
73267;BME280;61495;53.400;7.608;2022-12-18T05:46:14;102941.22;;;-4.43;85.14
73267;BME280;61495;53.400;7.608;2022-12-18T05:48:40;102938.72;;;-4.46;84.88
73267;BME280;61495;53.400;7.608;2022-12-18T05:51:08;102937.81;;;-4.45;84.88
73267;BME280;61495;53.400;7.608;2022-12-18T05:53:35;102930.94;;;-4.47;85.02
73267;BME280;61495;53.400;7.608;2022-12-18T05:56:03;102934.53;;;-4.50;84.80
73267;BME280;61495;53.400;7.608;2022-12-18T05:58:29;102934.63;;;-4.53;84.95
73267;BME280;61495;53.400;7.608;2022-12-18T06:00:55;102928.50;;;-4.52;84.88
73267;BME280;61495;53.400;7.608;2022-12-18T06:03:20;102927.69;;;-4.54;84.82
73267;BME280;61495;53.400;7.608;2022-12-18T06:05:45;102927.81;;;-4.57;84.89
73267;BME280;61495;53.400;7.608;2022-12-18T06:08:12;102939.97;;;-4.56;84.72
73267;BME280;61495;53.400;7.608;2022-12-18T06:10:38;102933.16;;;-4.60;84.72
73267;BME280;61495;53.400;7.608;2022-12-18T06:13:05;102936.63;;;-4.60;84.81
73267;BME280;61495;53.400;7.608;2022-12-18T06:15:31;102941.13;;;-4.63;84.82
73267;BME280;61495;53.400;7.608;2022-12-18T06:17:56;102940.31;;;-4.65;84.91
73267;BME280;61495;53.400;7.608;2022-12-18T06:20:22;102946.34;;;-4.63;84.82
73267;BME280;61495;53.400;7.608;2022-12-18T06:22:48;102942.28;;;-4.70;84.75
73267;BME280;61495;53.400;7.608;2022-12-18T06:25:13;102947.38;;;-4.67;84.75
73267;BME280;61495;53.400;7.608;2022-12-18T06:27:38;102952.72;;;-4.70;84.77
73267;BME280;61495;53.400;7.608;2022-12-18T06:30:04;102952.66;;;-4.69;84.58
73267;BME280;61495;53.400;7.608;2022-12-18T06:32:30;102956.13;;;-4.68;84.56
73267;BME280;61495;53.400;7.608;2022-12-18T06:34:55;102964.91;;;-4.69;84.63
73267;BME280;61495;53.400;7.608;2022-12-18T06:37:21;102959.66;;;-4.69;84.75
73267;BME280;61495;53.400;7.608;2022-12-18T06:39:50;102961.47;;;-4.71;84.57
73267;BME280;61495;53.400;7.608;2022-12-18T06:42:15;102953.69;;;-4.73;84.87
73267;BME280;61495;53.400;7.608;2022-12-18T06:44:40;102963.41;;;-4.76;84.62
73267;BME280;61495;53.400;7.608;2022-12-18T06:47:06;102960.00;;;-4.78;84.60
73267;BME280;61495;53.400;7.608;2022-12-18T06:49:31;102960.00;;;-4.78;84.68
73267;BME280;61495;53.400;7.608;2022-12-18T06:51:56;102956.56;;;-4.80;84.71
73267;BME280;61495;53.400;7.608;2022-12-18T06:54:22;102958.28;;;-4.79;84.78
73267;BME280;61495;53.400;7.608;2022-12-18T06:56:47;102954.88;;;-4.81;84.67
73267;BME280;61495;53.400;7.608;2022-12-18T06:59:13;102950.59;;;-4.84;84.71
73267;BME280;61495;53.400;7.608;2022-12-18T07:01:39;102955.00;;;-4.84;84.62
73267;BME280;61495;53.400;7.608;2022-12-18T07:04:05;102949.78;;;-4.84;84.79
73267;BME280;61495;53.400;7.608;2022-12-18T07:06:30;102944.56;;;-4.84;84.72
73267;BME280;61495;53.400;7.608;2022-12-18T07:08:55;102947.19;;;-4.86;84.70
73267;BME280;61495;53.400;7.608;2022-12-18T07:11:21;102941.13;;;-4.86;84.35
73267;BME280;61495;53.400;7.608;2022-12-18T07:13:47;102943.72;;;-4.86;84.57
73267;BME280;61495;53.400;7.608;2022-12-18T07:16:15;102943.81;;;-4.88;84.50
73267;BME280;61495;53.400;7.608;2022-12-18T07:18:41;102942.19;;;-4.92;84.49
73267;BME280;61495;53.400;7.608;2022-12-18T07:21:09;102936.00;;;-4.89;84.61
73267;BME280;61495;53.400;7.608;2022-12-18T07:23:35;102937.84;;;-4.91;84.68
73267;BME280;61495;53.400;7.608;2022-12-18T07:26:05;102933.56;;;-4.94;84.61
73267;BME280;61495;53.400;7.608;2022-12-18T07:28:32;102937.84;;;-4.91;84.60
73267;BME280;61495;53.400;7.608;2022-12-18T07:31:05;102939.69;;;-4.95;84.58
73267;BME280;61495;53.400;7.608;2022-12-18T07:33:32;102939.78;;;-4.96;84.60
73267;BME280;61495;53.400;7.608;2022-12-18T07:36:02;102938.13;;;-4.99;84.63
73267;BME280;61495;53.400;7.608;2022-12-18T07:38:29;102936.34;;;-4.98;84.48
73267;BME280;61495;53.400;7.608;2022-12-18T07:40:54;102941.56;;;-4.98;84.60
73267;BME280;61495;53.400;7.608;2022-12-18T07:43:20;102932.94;;;-5.00;84.85
73267;BME280;61495;53.400;7.608;2022-12-18T07:45:45;102942.41;;;-4.98;84.50
73267;BME280;61495;53.400;7.608;2022-12-18T07:48:10;102946.78;;;-4.98;84.64
73267;BME280;61495;53.400;7.608;2022-12-18T07:50:36;102944.25;;;-5.00;84.39
73267;BME280;61495;53.400;7.608;2022-12-18T07:53:02;102938.38;;;-5.07;84.49
73267;BME280;61495;53.400;7.608;2022-12-18T07:55:31;102938.16;;;-5.00;84.40
73267;BME280;61495;53.400;7.608;2022-12-18T07:57:56;102936.50;;;-5.03;84.64
73267;BME280;61495;53.400;7.608;2022-12-18T08:00:22;102931.22;;;-5.01;84.52
73267;BME280;61495;53.400;7.608;2022-12-18T08:02:47;102935.72;;;-5.05;84.52
73267;BME280;61495;53.400;7.608;2022-12-18T08:05:12;102936.44;;;-5.01;84.41
73267;BME280;61495;53.400;7.608;2022-12-18T08:07:38;102929.75;;;-5.09;84.49
73267;BME280;61495;53.400;7.608;2022-12-18T08:10:04;102930.53;;;-5.07;84.55
73267;BME280;61495;53.400;7.608;2022-12-18T08:12:29;102926.22;;;-5.08;84.56
73267;BME280;61495;53.400;7.608;2022-12-18T08:14:55;102926.22;;;-5.08;84.71
73267;BME280;61495;53.400;7.608;2022-12-18T08:17:20;102918.50;;;-5.11;84.60
73267;BME280;61495;53.400;7.608;2022-12-18T08:19:46;102911.41;;;-5.07;84.73
73267;BME280;61495;53.400;7.608;2022-12-18T08:22:11;102915.94;;;-5.12;84.71
73267;BME280;61495;53.400;7.608;2022-12-18T08:24:36;102916.81;;;-5.12;84.88
73267;BME280;61495;53.400;7.608;2022-12-18T08:27:02;102912.44;;;-5.11;84.89
73267;BME280;61495;53.400;7.608;2022-12-18T08:29:27;102912.38;;;-5.10;84.80
73267;BME280;61495;53.400;7.608;2022-12-18T08:31:53;102919.34;;;-5.10;84.86
73267;BME280;61495;53.400;7.608;2022-12-18T08:34:18;102920.19;;;-5.10;84.92
73267;BME280;61495;53.400;7.608;2022-12-18T08:36:43;102923.59;;;-5.08;85.03
73267;BME280;61495;53.400;7.608;2022-12-18T08:39:09;102934.00;;;-5.06;84.95
73267;BME280;61495;53.400;7.608;2022-12-18T08:41:34;102937.47;;;-5.06;85.13
73267;BME280;61495;53.400;7.608;2022-12-18T08:44:00;102939.25;;;-5.06;84.89
73267;BME280;61495;53.400;7.608;2022-12-18T08:46:44;102941.88;;;-5.08;85.17
73267;BME280;61495;53.400;7.608;2022-12-18T08:49:11;102965.19;;;-5.01;85.22
73267;BME280;61495;53.400;7.608;2022-12-18T08:51:37;102979.06;;;-4.99;85.17
73267;BME280;61495;53.400;7.608;2022-12-18T08:54:03;102980.75;;;-4.98;85.20
73267;BME280;61495;53.400;7.608;2022-12-18T08:56:29;102967.53;;;-4.94;85.21
73267;BME280;61495;53.400;7.608;2022-12-18T08:58:55;102965.69;;;-4.90;85.31
73267;BME280;61495;53.400;7.608;2022-12-18T09:01:21;102965.69;;;-4.90;85.13
73267;BME280;61495;53.400;7.608;2022-12-18T09:03:50;102962.13;;;-4.89;85.05
73267;BME280;61495;53.400;7.608;2022-12-18T09:06:20;102958.63;;;-4.88;85.02
73267;BME280;61495;53.400;7.608;2022-12-18T09:08:46;102956.88;;;-4.88;85.22
73267;BME280;61495;53.400;7.608;2022-12-18T09:11:21;102961.13;;;-4.85;84.95
73267;BME280;61495;53.400;7.608;2022-12-18T09:13:46;102955.00;;;-4.84;85.15
73267;BME280;61495;53.400;7.608;2022-12-18T09:16:12;102942.84;;;-4.85;85.06
73267;BME280;61495;53.400;7.608;2022-12-18T09:18:37;102948.06;;;-4.85;85.04
73267;BME280;61495;53.400;7.608;2022-12-18T09:21:10;102950.69;;;-4.85;84.85
73267;BME280;61495;53.400;7.608;2022-12-18T09:23:36;102959.31;;;-4.83;85.13
73267;BME280;61495;53.400;7.608;2022-12-18T09:26:01;102966.28;;;-4.84;85.41
73267;BME280;61495;53.400;7.608;2022-12-18T09:28:27;102963.53;;;-4.79;85.36
73267;BME280;61495;53.400;7.608;2022-12-18T09:30:53;102963.41;;;-4.76;85.11
73267;BME280;61495;53.400;7.608;2022-12-18T09:33:18;102958.19;;;-4.76;85.07
73267;BME280;61495;53.400;7.608;2022-12-18T09:35:45;102957.97;;;-4.70;85.25
73267;BME280;61495;53.400;7.608;2022-12-18T09:38:13;102959.66;;;-4.69;85.43
73267;BME280;61495;53.400;7.608;2022-12-18T09:40:53;102968.84;;;-4.59;85.29
73267;BME280;61495;53.400;7.608;2022-12-18T09:43:39;102961.75;;;-4.56;85.32
73267;BME280;61495;53.400;7.608;2022-12-18T09:46:08;102955.56;;;-4.53;85.19
73267;BME280;61495;53.400;7.608;2022-12-18T09:48:39;102964.06;;;-4.48;85.13
73267;BME280;61495;53.400;7.608;2022-12-18T09:51:15;102966.66;;;-4.46;85.05
73267;BME280;61495;53.400;7.608;2022-12-18T09:53:45;102966.75;;;-4.50;84.95
73267;BME280;61495;53.400;7.608;2022-12-18T09:56:16;102969.31;;;-4.48;85.21
73267;BME280;61495;53.400;7.608;2022-12-18T09:58:47;102959.59;;;-4.44;85.36
73267;BME280;61495;53.400;7.608;2022-12-18T10:01:20;102954.97;;;-4.38;85.43
73267;BME280;61495;53.400;7.608;2022-12-18T10:03:47;102943.63;;;-4.37;85.20
73267;BME280;61495;53.400;7.608;2022-12-18T10:22:30;102937.78;;;-4.22;85.25
73267;BME280;61495;53.400;7.608;2022-12-18T10:25:15;102938.44;;;-4.17;85.71
73267;BME280;61495;53.400;7.608;2022-12-18T10:27:43;102927.97;;;-4.17;85.47
73267;BME280;61495;53.400;7.608;2022-12-18T10:30:15;102924.31;;;-4.13;85.75
73267;BME280;61495;53.400;7.608;2022-12-18T10:32:41;102922.56;;;-4.12;85.91
73267;BME280;61495;53.400;7.608;2022-12-18T10:35:20;102912.81;;;-4.09;85.85
73267;BME280;61495;53.400;7.608;2022-12-18T10:38:06;102915.31;;;-4.06;86.03
73267;BME280;61495;53.400;7.608;2022-12-18T10:40:47;102911.56;;;-3.99;86.17
73267;BME280;61495;53.400;7.608;2022-12-18T10:43:14;102901.84;;;-3.97;86.08
73267;BME280;61495;53.400;7.608;2022-12-18T10:45:40;102905.00;;;-3.88;86.15
73267;BME280;61495;53.400;7.608;2022-12-18T10:48:19;102894.34;;;-3.84;86.37
73267;BME280;61495;53.400;7.608;2022-12-18T10:50:48;102890.69;;;-3.80;86.27
73267;BME280;61495;53.400;7.608;2022-12-18T10:53:19;102895.53;;;-3.71;86.73
73267;BME280;61495;53.400;7.608;2022-12-18T10:55:46;102896.94;;;-3.62;86.29
73267;BME280;61495;53.400;7.608;2022-12-18T11:00:42;102904.25;;;-3.50;86.97
73267;BME280;61495;53.400;7.608;2022-12-18T11:03:31;102912.78;;;-3.45;86.70
73267;BME280;61495;53.400;7.608;2022-12-18T11:06:05;102916.69;;;-3.35;86.81
73267;BME280;61495;53.400;7.608;2022-12-18T11:08:31;102905.03;;;-3.28;86.71
73267;BME280;61495;53.400;7.608;2022-12-18T11:10:56;102898.53;;;-3.19;86.13
73267;BME280;61495;53.400;7.608;2022-12-18T11:13:24;102895.50;;;-3.10;86.32
73267;BME280;61495;53.400;7.608;2022-12-18T11:15:51;102879.28;;;-3.00;86.59
73267;BME280;61495;53.400;7.608;2022-12-18T11:18:40;102871.94;;;-2.92;86.52
73267;BME280;61495;53.400;7.608;2022-12-18T11:21:12;102871.66;;;-2.86;86.62
73267;BME280;61495;53.400;7.608;2022-12-18T11:23:54;102866.16;;;-2.79;86.84
73267;BME280;61495;53.400;7.608;2022-12-18T11:26:20;102849.13;;;-2.71;86.31
73267;BME280;61495;53.400;7.608;2022-12-18T11:28:49;102843.59;;;-2.65;86.41
73267;BME280;61495;53.400;7.608;2022-12-18T11:31:28;102837.97;;;-2.57;86.42
73267;BME280;61495;53.400;7.608;2022-12-18T11:34:16;102829.81;;;-2.51;86.02
73267;BME280;61495;53.400;7.608;2022-12-18T11:36:46;102831.22;;;-2.44;86.65
73267;BME280;61495;53.400;7.608;2022-12-18T11:42:09;102821.81;;;-2.31;86.28
73267;BME280;61495;53.400;7.608;2022-12-18T11:45:27;102823.38;;;-2.27;86.24
73267;BME280;61495;53.400;7.608;2022-12-18T11:47:49;102800.38;;;-2.22;86.12
73267;BME280;61495;53.400;7.608;2022-12-18T11:50:21;102795.91;;;-2.20;85.61
73267;BME280;61495;53.400;7.608;2022-12-18T11:52:49;102786.03;;;-2.15;86.24
73267;BME280;61495;53.400;7.608;2022-12-18T11:55:17;102787.56;;;-2.11;86.02
73267;BME280;61495;53.400;7.608;2022-12-18T11:57:55;102794.28;;;-2.05;86.13
73267;BME280;61495;53.400;7.608;2022-12-18T12:00:24;102799.44;;;-2.04;86.29
73267;BME280;61495;53.400;7.608;2022-12-18T12:05:48;102796.75;;;-2.02;86.28
73267;BME280;61495;53.400;7.608;2022-12-18T12:17:01;102780.75;;;-1.98;85.54
73267;BME280;61495;53.400;7.608;2022-12-18T12:22:53;102771.09;;;-1.97;85.40
73267;BME280;61495;53.400;7.608;2022-12-18T12:36:21;102768.38;;;-1.96;85.60
73267;BME280;61495;53.400;7.608;2022-12-18T12:38:57;102771.00;;;-1.96;85.83
73267;BME280;61495;53.400;7.608;2022-12-18T12:41:27;102762.38;;;-1.98;85.38
73267;BME280;61495;53.400;7.608;2022-12-18T12:44:18;102757.28;;;-2.01;84.79
73267;BME280;61495;53.400;7.608;2022-12-18T12:46:45;102742.22;;;-1.97;85.30
73267;BME280;61495;53.400;7.608;2022-12-18T12:49:19;102740.63;;;-2.00;85.46
73267;BME280;61495;53.400;7.608;2022-12-18T12:51:52;102728.34;;;-1.99;85.68
73267;BME280;61495;53.400;7.608;2022-12-18T12:54:24;102715.22;;;-1.99;85.13
73267;BME280;61495;53.400;7.608;2022-12-18T12:57:09;102713.56;;;-2.02;84.95
73267;BME280;61495;53.400;7.608;2022-12-18T13:02:43;102716.13;;;-2.00;85.36
73267;BME280;61495;53.400;7.608;2022-12-18T13:05:49;102710.94;;;-2.02;85.49
73267;BME280;61495;53.400;7.608;2022-12-18T13:08:27;102718.31;;;-2.08;84.06
73267;BME280;61495;53.400;7.608;2022-12-18T13:10:59;102719.38;;;-2.12;84.06
73267;BME280;61495;53.400;7.608;2022-12-18T13:13:52;102719.38;;;-2.12;84.33
73267;BME280;61495;53.400;7.608;2022-12-18T13:16:20;102714.84;;;-2.09;84.74
73267;BME280;61495;53.400;7.608;2022-12-18T13:18:56;102712.38;;;-2.12;84.76
73267;BME280;61495;53.400;7.608;2022-12-18T13:21:29;102719.81;;;-2.04;85.59
73267;BME280;61495;53.400;7.608;2022-12-18T13:24:15;102701.88;;;-2.12;84.66
73267;BME280;61495;53.400;7.608;2022-12-18T13:26:40;102708.47;;;-2.05;85.09
73267;BME280;61495;53.400;7.608;2022-12-18T13:29:06;102700.69;;;-2.06;84.96
73267;BME280;61495;53.400;7.608;2022-12-18T13:34:23;102677.97;;;-2.07;84.79
73267;BME280;61495;53.400;7.608;2022-12-18T13:36:49;102677.47;;;-2.14;83.96
73267;BME280;61495;53.400;7.608;2022-12-18T13:41:48;102674.84;;;-2.14;84.58
73267;BME280;61495;53.400;7.608;2022-12-18T13:46:51;102656.78;;;-2.20;84.64
73267;BME280;61495;53.400;7.608;2022-12-18T13:49:39;102655.00;;;-2.19;84.49
73267;BME280;61495;53.400;7.608;2022-12-18T13:52:27;102640.09;;;-2.19;84.64
73267;BME280;61495;53.400;7.608;2022-12-18T13:54:56;102638.59;;;-2.23;84.12
73267;BME280;61495;53.400;7.608;2022-12-18T13:57:31;102643.03;;;-2.25;84.72
73267;BME280;61495;53.400;7.608;2022-12-18T14:02:44;102637.63;;;-2.22;84.48
73267;BME280;61495;53.400;7.608;2022-12-18T14:05:39;102633.41;;;-2.25;84.77
73267;BME280;61495;53.400;7.608;2022-12-18T14:08:06;102638.66;;;-2.25;84.84
73267;BME280;61495;53.400;7.608;2022-12-18T14:10:33;102637.91;;;-2.27;84.43
73267;BME280;61495;53.400;7.608;2022-12-18T14:13:04;102640.41;;;-2.25;84.76
73267;BME280;61495;53.400;7.608;2022-12-18T14:15:41;102635.31;;;-2.28;84.19
73267;BME280;61495;53.400;7.608;2022-12-18T14:19:08;102619.53;;;-2.27;84.89
73267;BME280;61495;53.400;7.608;2022-12-18T14:21:25;102613.47;;;-2.29;84.33
73267;BME280;61495;53.400;7.608;2022-12-18T14:24:17;102607.41;;;-2.29;84.98
73267;BME280;61495;53.400;7.608;2022-12-18T14:26:44;102597.25;;;-2.35;83.98